tweet検索RMK編

Orión

Tu no puedes ser amigo de gobernantes corruptos que violan la ley y hacen planes malvados...dicta sentencia de muerte a la gente inocente...Salmos 94 20-21

RT @sebastianthm: @petrogustavo Es que no sabían ni por qué estaban ahí. https://t.co/IzHyet3USG

Twitter for Android

Orión

Tu no puedes ser amigo de gobernantes corruptos que violan la ley y hacen planes malvados...dicta sentencia de muerte a la gente inocente...Salmos 94 20-21

RT @Ivan65176500: @petrogustavo #paraahi Aquí los argumentos 👇 https://t.co/OjMLcnVtAS

Twitter for Android

مساجك جلسات مساج تدليك منزلي فندقي في جدة فلبيني

مساجك لخدمات المساج في مدن المملكة 🇸🇦 المنزلية نجيك لموقعك أخصائين خبراء خدمتكم شرف نرتقي به للحجز و التواصل واتساب https://t.co/3mHmMt6leV

مركز مساج سبا زيارات منزلية و فندقية مختصين كفاءة و خبرة عالية 💆🏻‍♂️ وسائل دفع متعددة ✅ في الرياض جدة هُنا الان "… https://t.co/U1O5ccAQSz

TweetDeck

kabir

Administrator//#student/teacher#/chelsea/real Madrid #.. Ya Allah take my life only when u r pleased with me...

@iamjayhumble @BashirAhmaad There is nothing more important than RMK victory sir

Twitter for iPhone

METARつぶやき

RJCC,RJAA,RJTT,RJGG,RJOO, RJBB,RJFF,ROAH,RJNS

2022/09/26 19:10 RJFF 261910Z AUTO 36005KT 3100 TSRA BR FEW003 SCT015 BKN044 //////CB 23/23 Q1012 RMK A2990 RI003 T… https://t.co/1hdvX8wQNB

METAR_tweeter

RJFF METAR

福岡空港

RJFF 261910Z AUTO 36005KT 3100 TSRA BR FEW003 SCT015 BKN044 //////CB 23/23 Q1012 RMK A2990 RI003 TS 5KM W AND 20KM SW MOV UNKNOWN

METAR Updater

RJAA METAR

Narita Int'l Airport

RJAA 261900Z AUTO 34002KT 9999 BKN043 19/18 Q1015 NOSIG RMK A2999

METAR Updater

RJCC METAR

New Chitose Airport

RJCC 261900Z 36005KT 9999 FEW010 10/10 Q1016 RMK 1ST010 A3002

METAR Updater

Snowmobile Parts in Motors

Snowmobile Parts in Motors . Supplies and Accessories. Selected Items. Deals. Product Information. Daily Updated. (eBay Links)

'05-'06 Polaris 900 RMK Top End Kit Standard 83.00mm Bore Piston Kits / Gaskets https://t.co/XTBRH2nTEm eBay https://t.co/fvXSDhbXCU

dlvr.it

CZBA WEATHER

Burlington Executive Airpark weather information. METAR/LWIS updated every 15 minutes. AWOS 122.55MHz. Toll free 1-844-WXB-CZBA for transcribed weather.

LWIS CZBA 261915Z AUTO 26014G19KT SCT025 BKN060 15/07 A2948 RMK DENSITY ALT 1400FT ADVISORY ONLY=

CZBAMETAR

Muhammad Sani aliyu

I it a with recent good and mid

RT @Ibrahim45107925: The leader of Nigeria's Politics H.E. Dr. Rabi'u Musa Kwankwaso.#RMK https://t.co/YSgHIGGD0o

Twitter for Android

kwankwasiyya(Honesty).

Simply, harder on my believe on youths the leaders of tommorow. Motto÷(Retiring for a Purpose).

Masha Allahu jazakallahu khair Mai Daraja Da Amanar #RMK, da Abba Kabir #AbbaGidaGida, da #ComradeAminu, Allah Ya T… https://t.co/fBDhFDcCUf

Twitter for Android

Orión

Tu no puedes ser amigo de gobernantes corruptos que violan la ley y hacen planes malvados...dicta sentencia de muerte a la gente inocente...Salmos 94 20-21

RT @Eclides3: María Fernanda Cabal y su familia tiene para su protección 7 camionetas, 16 escoltas, 4 policías. Una de éstas camionetas la…

Twitter for Android

Orión

Tu no puedes ser amigo de gobernantes corruptos que violan la ley y hacen planes malvados...dicta sentencia de muerte a la gente inocente...Salmos 94 20-21

RT @vovallediaz: Buenas tardes mi gente, solo era para recordarles que en elecciones de 2022 la mayoría de los cambios votamos por el cambi…

Twitter for Android

Orión

Tu no puedes ser amigo de gobernantes corruptos que violan la ley y hacen planes malvados...dicta sentencia de muerte a la gente inocente...Salmos 94 20-21

RT @Mamertos0: Buenos días y pilas con salir a marchar!!!😏 https://t.co/Wds8NJn1sd

Twitter for Android